sensor_id;sensor_type;location;lat;lon;timestamp;P1;durP1;ratioP1;P2;durP2;ratioP2
24557;SDS011;12726;49.148;8.582;2022-11-20T00:00:41;4.95;;;3.42;;
24557;SDS011;12726;49.148;8.582;2022-11-20T00:03:26;3.60;;;3.03;;
24557;SDS011;12726;49.148;8.582;2022-11-20T00:06:12;4.75;;;3.70;;
24557;SDS011;12726;49.148;8.582;2022-11-20T00:08:59;5.72;;;3.50;;
24557;SDS011;12726;49.148;8.582;2022-11-20T00:11:46;5.53;;;3.80;;
24557;SDS011;12726;49.148;8.582;2022-11-20T00:14:31;5.85;;;4.20;;
24557;SDS011;12726;49.148;8.582;2022-11-20T00:17:17;6.53;;;4.25;;
24557;SDS011;12726;49.148;8.582;2022-11-20T00:20:02;6.88;;;4.50;;
24557;SDS011;12726;49.148;8.582;2022-11-20T00:22:48;6.35;;;3.90;;
24557;SDS011;12726;49.148;8.582;2022-11-20T00:25:34;4.93;;;3.72;;
24557;SDS011;12726;49.148;8.582;2022-11-20T00:28:20;6.32;;;4.18;;
24557;SDS011;12726;49.148;8.582;2022-11-20T00:31:06;6.10;;;4.15;;
24557;SDS011;12726;49.148;8.582;2022-11-20T00:33:53;6.05;;;4.43;;
24557;SDS011;12726;49.148;8.582;2022-11-20T00:36:38;6.53;;;4.30;;
24557;SDS011;12726;49.148;8.582;2022-11-20T00:39:24;7.75;;;4.40;;
24557;SDS011;12726;49.148;8.582;2022-11-20T00:42:09;6.73;;;4.83;;
24557;SDS011;12726;49.148;8.582;2022-11-20T00:44:55;9.00;;;5.47;;
24557;SDS011;12726;49.148;8.582;2022-11-20T00:47:40;9.65;;;5.60;;
24557;SDS011;12726;49.148;8.582;2022-11-20T00:50:26;11.35;;;6.53;;
24557;SDS011;12726;49.148;8.582;2022-11-20T00:53:11;9.55;;;6.30;;
24557;SDS011;12726;49.148;8.582;2022-11-20T00:55:57;10.98;;;7.38;;
24557;SDS011;12726;49.148;8.582;2022-11-20T00:58:43;13.88;;;9.27;;
24557;SDS011;12726;49.148;8.582;2022-11-20T01:01:31;14.43;;;8.00;;
24557;SDS011;12726;49.148;8.582;2022-11-20T01:04:16;13.02;;;7.68;;
24557;SDS011;12726;49.148;8.582;2022-11-20T01:07:02;10.43;;;7.00;;
24557;SDS011;12726;49.148;8.582;2022-11-20T01:09:47;15.10;;;8.13;;
24557;SDS011;12726;49.148;8.582;2022-11-20T01:12:32;14.70;;;8.25;;
24557;SDS011;12726;49.148;8.582;2022-11-20T01:15:17;13.57;;;9.00;;
24557;SDS011;12726;49.148;8.582;2022-11-20T01:18:04;16.08;;;9.23;;
24557;SDS011;12726;49.148;8.582;2022-11-20T01:20:49;13.32;;;8.77;;
24557;SDS011;12726;49.148;8.582;2022-11-20T01:23:36;14.10;;;8.85;;
24557;SDS011;12726;49.148;8.582;2022-11-20T01:26:23;14.73;;;9.55;;
24557;SDS011;12726;49.148;8.582;2022-11-20T01:29:10;14.55;;;9.73;;
24557;SDS011;12726;49.148;8.582;2022-11-20T01:31:58;18.63;;;10.80;;
24557;SDS011;12726;49.148;8.582;2022-11-20T01:34:45;18.27;;;10.60;;
24557;SDS011;12726;49.148;8.582;2022-11-20T01:37:30;18.02;;;10.48;;
24557;SDS011;12726;49.148;8.582;2022-11-20T01:40:15;20.02;;;11.40;;
24557;SDS011;12726;49.148;8.582;2022-11-20T01:43:06;18.33;;;11.20;;
24557;SDS011;12726;49.148;8.582;2022-11-20T01:46:13;17.13;;;10.20;;
24557;SDS011;12726;49.148;8.582;2022-11-20T01:49:00;14.05;;;8.80;;
24557;SDS011;12726;49.148;8.582;2022-11-20T01:51:50;17.60;;;9.93;;
24557;SDS011;12726;49.148;8.582;2022-11-20T01:54:40;17.60;;;10.15;;
24557;SDS011;12726;49.148;8.582;2022-11-20T01:57:28;15.13;;;8.88;;
24557;SDS011;12726;49.148;8.582;2022-11-20T02:00:17;20.50;;;11.05;;
24557;SDS011;12726;49.148;8.582;2022-11-20T02:03:04;21.92;;;10.63;;
24557;SDS011;12726;49.148;8.582;2022-11-20T02:05:54;18.40;;;11.02;;
24557;SDS011;12726;49.148;8.582;2022-11-20T02:08:45;19.70;;;11.55;;
24557;SDS011;12726;49.148;8.582;2022-11-20T02:11:30;21.90;;;11.07;;
24557;SDS011;12726;49.148;8.582;2022-11-20T02:14:16;20.38;;;11.88;;
24557;SDS011;12726;49.148;8.582;2022-11-20T02:17:00;19.10;;;10.98;;
24557;SDS011;12726;49.148;8.582;2022-11-20T02:19:45;18.75;;;11.23;;
24557;SDS011;12726;49.148;8.582;2022-11-20T02:22:32;22.85;;;12.77;;
24557;SDS011;12726;49.148;8.582;2022-11-20T02:25:24;21.50;;;11.80;;
24557;SDS011;12726;49.148;8.582;2022-11-20T02:28:12;20.40;;;11.40;;
24557;SDS011;12726;49.148;8.582;2022-11-20T02:30:57;19.70;;;11.38;;
24557;SDS011;12726;49.148;8.582;2022-11-20T02:33:42;19.08;;;10.90;;
24557;SDS011;12726;49.148;8.582;2022-11-20T02:36:27;17.40;;;11.20;;
24557;SDS011;12726;49.148;8.582;2022-11-20T02:39:16;19.13;;;10.98;;
24557;SDS011;12726;49.148;8.582;2022-11-20T02:42:03;17.23;;;10.52;;
24557;SDS011;12726;49.148;8.582;2022-11-20T02:44:48;16.80;;;11.00;;
24557;SDS011;12726;49.148;8.582;2022-11-20T02:47:34;19.10;;;11.48;;
24557;SDS011;12726;49.148;8.582;2022-11-20T02:50:19;18.08;;;10.77;;
24557;SDS011;12726;49.148;8.582;2022-11-20T02:53:05;19.23;;;10.60;;
24557;SDS011;12726;49.148;8.582;2022-11-20T02:55:51;19.00;;;11.05;;
24557;SDS011;12726;49.148;8.582;2022-11-20T02:58:37;16.65;;;10.57;;
24557;SDS011;12726;49.148;8.582;2022-11-20T03:01:23;16.67;;;10.85;;
24557;SDS011;12726;49.148;8.582;2022-11-20T03:04:07;20.58;;;11.60;;
24557;SDS011;12726;49.148;8.582;2022-11-20T03:06:53;18.27;;;10.20;;
24557;SDS011;12726;49.148;8.582;2022-11-20T03:09:38;18.67;;;11.02;;
24557;SDS011;12726;49.148;8.582;2022-11-20T03:12:23;17.90;;;10.80;;
24557;SDS011;12726;49.148;8.582;2022-11-20T03:15:10;17.75;;;11.52;;
24557;SDS011;12726;49.148;8.582;2022-11-20T03:17:55;18.50;;;11.48;;
24557;SDS011;12726;49.148;8.582;2022-11-20T03:20:41;17.90;;;10.60;;
24557;SDS011;12726;49.148;8.582;2022-11-20T03:23:28;16.55;;;10.05;;
24557;SDS011;12726;49.148;8.582;2022-11-20T03:26:14;17.88;;;10.05;;
24557;SDS011;12726;49.148;8.582;2022-11-20T03:29:04;17.38;;;9.73;;
24557;SDS011;12726;49.148;8.582;2022-11-20T03:31:51;14.75;;;9.45;;
24557;SDS011;12726;49.148;8.582;2022-11-20T03:34:38;14.23;;;8.85;;
24557;SDS011;12726;49.148;8.582;2022-11-20T03:37:24;16.50;;;9.40;;
24557;SDS011;12726;49.148;8.582;2022-11-20T03:40:09;14.32;;;7.97;;
24557;SDS011;12726;49.148;8.582;2022-11-20T03:42:54;11.65;;;7.93;;
24557;SDS011;12726;49.148;8.582;2022-11-20T03:45:39;12.50;;;8.20;;
24557;SDS011;12726;49.148;8.582;2022-11-20T03:48:26;13.05;;;7.88;;
24557;SDS011;12726;49.148;8.582;2022-11-20T03:51:12;11.60;;;7.40;;
24557;SDS011;12726;49.148;8.582;2022-11-20T03:54:00;13.80;;;8.10;;
24557;SDS011;12726;49.148;8.582;2022-11-20T03:56:46;12.88;;;7.60;;
24557;SDS011;12726;49.148;8.582;2022-11-20T03:59:31;12.23;;;6.70;;
24557;SDS011;12726;49.148;8.582;2022-11-20T04:02:17;11.52;;;7.28;;
24557;SDS011;12726;49.148;8.582;2022-11-20T04:05:03;11.13;;;6.55;;
24557;SDS011;12726;49.148;8.582;2022-11-20T04:07:49;10.55;;;6.95;;
24557;SDS011;12726;49.148;8.582;2022-11-20T04:10:34;10.60;;;6.22;;
24557;SDS011;12726;49.148;8.582;2022-11-20T04:13:19;9.82;;;7.20;;
24557;SDS011;12726;49.148;8.582;2022-11-20T04:16:05;10.25;;;6.22;;
24557;SDS011;12726;49.148;8.582;2022-11-20T04:18:51;9.45;;;6.20;;
24557;SDS011;12726;49.148;8.582;2022-11-20T04:21:38;12.02;;;6.22;;
24557;SDS011;12726;49.148;8.582;2022-11-20T04:24:24;9.88;;;6.07;;
24557;SDS011;12726;49.148;8.582;2022-11-20T04:27:09;7.75;;;5.75;;
24557;SDS011;12726;49.148;8.582;2022-11-20T04:29:54;10.65;;;6.43;;
24557;SDS011;12726;49.148;8.582;2022-11-20T04:32:40;11.23;;;5.88;;
24557;SDS011;12726;49.148;8.582;2022-11-20T04:35:25;7.30;;;5.07;;
24557;SDS011;12726;49.148;8.582;2022-11-20T04:38:11;10.05;;;5.40;;
24557;SDS011;12726;49.148;8.582;2022-11-20T04:40:57;7.68;;;4.80;;
24557;SDS011;12726;49.148;8.582;2022-11-20T04:43:45;7.53;;;5.32;;
24557;SDS011;12726;49.148;8.582;2022-11-20T04:46:33;8.02;;;5.10;;
24557;SDS011;12726;49.148;8.582;2022-11-20T04:49:20;8.15;;;5.18;;
24557;SDS011;12726;49.148;8.582;2022-11-20T04:52:08;9.52;;;5.57;;
24557;SDS011;12726;49.148;8.582;2022-11-20T04:54:55;7.20;;;5.25;;
24557;SDS011;12726;49.148;8.582;2022-11-20T04:57:40;7.07;;;4.40;;
24557;SDS011;12726;49.148;8.582;2022-11-20T05:00:25;7.22;;;4.55;;
24557;SDS011;12726;49.148;8.582;2022-11-20T05:03:10;7.03;;;4.70;;
24557;SDS011;12726;49.148;8.582;2022-11-20T05:05:55;6.75;;;4.68;;
24557;SDS011;12726;49.148;8.582;2022-11-20T05:08:41;6.93;;;4.45;;
24557;SDS011;12726;49.148;8.582;2022-11-20T05:11:28;7.13;;;4.28;;
24557;SDS011;12726;49.148;8.582;2022-11-20T05:14:13;7.25;;;4.10;;
24557;SDS011;12726;49.148;8.582;2022-11-20T05:16:58;6.22;;;4.07;;
24557;SDS011;12726;49.148;8.582;2022-11-20T05:19:44;8.80;;;4.32;;
24557;SDS011;12726;49.148;8.582;2022-11-20T05:22:29;6.03;;;4.25;;
24557;SDS011;12726;49.148;8.582;2022-11-20T05:25:14;7.40;;;4.03;;
24557;SDS011;12726;49.148;8.582;2022-11-20T05:28:01;6.40;;;4.28;;
24557;SDS011;12726;49.148;8.582;2022-11-20T05:30:47;5.45;;;4.07;;
24557;SDS011;12726;49.148;8.582;2022-11-20T05:33:33;6.50;;;4.28;;
24557;SDS011;12726;49.148;8.582;2022-11-20T05:36:19;5.57;;;3.80;;
24557;SDS011;12726;49.148;8.582;2022-11-20T05:39:04;6.10;;;4.10;;
24557;SDS011;12726;49.148;8.582;2022-11-20T05:41:49;5.80;;;3.88;;
24557;SDS011;12726;49.148;8.582;2022-11-20T05:44:56;7.90;;;4.38;;
24557;SDS011;12726;49.148;8.582;2022-11-20T05:47:42;5.43;;;4.10;;
24557;SDS011;12726;49.148;8.582;2022-11-20T05:50:28;6.22;;;3.80;;
24557;SDS011;12726;49.148;8.582;2022-11-20T05:53:13;8.18;;;4.18;;
24557;SDS011;12726;49.148;8.582;2022-11-20T05:55:58;5.03;;;3.78;;
24557;SDS011;12726;49.148;8.582;2022-11-20T05:58:44;4.95;;;3.92;;
24557;SDS011;12726;49.148;8.582;2022-11-20T06:01:31;5.93;;;4.15;;
24557;SDS011;12726;49.148;8.582;2022-11-20T06:04:16;5.03;;;3.67;;
24557;SDS011;12726;49.148;8.582;2022-11-20T06:07:02;6.30;;;3.55;;
24557;SDS011;12726;49.148;8.582;2022-11-20T06:09:47;5.93;;;3.80;;
24557;SDS011;12726;49.148;8.582;2022-11-20T06:12:32;5.35;;;3.95;;
24557;SDS011;12726;49.148;8.582;2022-11-20T06:15:17;6.30;;;3.17;;
24557;SDS011;12726;49.148;8.582;2022-11-20T06:18:04;5.07;;;3.22;;
24557;SDS011;12726;49.148;8.582;2022-11-20T06:20:50;7.75;;;3.60;;
24557;SDS011;12726;49.148;8.582;2022-11-20T06:23:44;4.80;;;3.45;;
24557;SDS011;12726;49.148;8.582;2022-11-20T06:26:30;6.32;;;3.80;;
24557;SDS011;12726;49.148;8.582;2022-11-20T06:29:15;5.22;;;3.53;;
24557;SDS011;12726;49.148;8.582;2022-11-20T06:32:01;6.28;;;3.65;;
24557;SDS011;12726;49.148;8.582;2022-11-20T06:34:47;5.93;;;3.50;;
24557;SDS011;12726;49.148;8.582;2022-11-20T06:37:33;7.45;;;3.72;;
24557;SDS011;12726;49.148;8.582;2022-11-20T06:40:18;5.97;;;3.60;;
24557;SDS011;12726;49.148;8.582;2022-11-20T06:43:03;4.57;;;2.83;;
24557;SDS011;12726;49.148;8.582;2022-11-20T06:45:51;5.38;;;3.90;;
24557;SDS011;12726;49.148;8.582;2022-11-20T06:48:36;5.75;;;3.70;;
24557;SDS011;12726;49.148;8.582;2022-11-20T06:51:23;4.32;;;3.58;;
24557;SDS011;12726;49.148;8.582;2022-11-20T06:54:08;3.63;;;3.10;;
24557;SDS011;12726;49.148;8.582;2022-11-20T06:56:53;5.07;;;3.80;;
24557;SDS011;12726;49.148;8.582;2022-11-20T06:59:39;8.30;;;3.85;;
24557;SDS011;12726;49.148;8.582;2022-11-20T07:02:24;6.93;;;3.35;;
24557;SDS011;12726;49.148;8.582;2022-11-20T07:05:09;5.22;;;3.42;;
24557;SDS011;12726;49.148;8.582;2022-11-20T07:07:56;4.85;;;3.20;;
24557;SDS011;12726;49.148;8.582;2022-11-20T07:10:42;6.70;;;3.35;;
24557;SDS011;12726;49.148;8.582;2022-11-20T07:13:27;5.47;;;3.28;;
24557;SDS011;12726;49.148;8.582;2022-11-20T07:16:13;4.13;;;3.20;;
24557;SDS011;12726;49.148;8.582;2022-11-20T07:18:59;6.22;;;2.95;;
24557;SDS011;12726;49.148;8.582;2022-11-20T07:21:44;4.10;;;3.10;;
24557;SDS011;12726;49.148;8.582;2022-11-20T07:24:31;6.75;;;3.47;;
24557;SDS011;12726;49.148;8.582;2022-11-20T07:27:16;5.60;;;3.33;;
24557;SDS011;12726;49.148;8.582;2022-11-20T07:30:01;4.80;;;3.67;;
24557;SDS011;12726;49.148;8.582;2022-11-20T07:32:47;5.93;;;3.75;;
24557;SDS011;12726;49.148;8.582;2022-11-20T07:35:35;4.95;;;3.20;;
24557;SDS011;12726;49.148;8.582;2022-11-20T07:38:20;4.50;;;3.10;;
24557;SDS011;12726;49.148;8.582;2022-11-20T07:41:07;4.50;;;3.17;;
24557;SDS011;12726;49.148;8.582;2022-11-20T07:43:52;5.72;;;3.22;;
24557;SDS011;12726;49.148;8.582;2022-11-20T07:46:38;3.67;;;3.00;;
24557;SDS011;12726;49.148;8.582;2022-11-20T07:49:23;3.70;;;2.83;;
24557;SDS011;12726;49.148;8.582;2022-11-20T07:52:08;4.07;;;2.60;;
24557;SDS011;12726;49.148;8.582;2022-11-20T07:54:54;5.32;;;3.00;;
24557;SDS011;12726;49.148;8.582;2022-11-20T07:57:41;6.30;;;3.10;;
24557;SDS011;12726;49.148;8.582;2022-11-20T08:00:26;4.85;;;2.67;;
24557;SDS011;12726;49.148;8.582;2022-11-20T08:03:12;4.63;;;3.00;;
24557;SDS011;12726;49.148;8.582;2022-11-20T08:05:58;6.68;;;3.22;;
24557;SDS011;12726;49.148;8.582;2022-11-20T08:08:44;5.03;;;3.25;;
24557;SDS011;12726;49.148;8.582;2022-11-20T08:11:29;3.60;;;2.95;;
24557;SDS011;12726;49.148;8.582;2022-11-20T08:14:34;4.20;;;3.17;;
24557;SDS011;12726;49.148;8.582;2022-11-20T08:17:19;3.83;;;2.85;;
24557;SDS011;12726;49.148;8.582;2022-11-20T08:20:04;4.88;;;3.10;;
24557;SDS011;12726;49.148;8.582;2022-11-20T08:22:50;5.13;;;3.38;;
24557;SDS011;12726;49.148;8.582;2022-11-20T08:25:36;5.15;;;3.80;;
24557;SDS011;12726;49.148;8.582;2022-11-20T08:28:23;4.95;;;3.95;;
24557;SDS011;12726;49.148;8.582;2022-11-20T08:31:10;4.45;;;3.42;;
24557;SDS011;12726;49.148;8.582;2022-11-20T08:33:55;4.40;;;3.35;;
24557;SDS011;12726;49.148;8.582;2022-11-20T08:36:41;6.75;;;3.72;;
24557;SDS011;12726;49.148;8.582;2022-11-20T08:39:27;6.43;;;3.70;;
24557;SDS011;12726;49.148;8.582;2022-11-20T08:42:12;4.85;;;3.53;;
24557;SDS011;12726;49.148;8.582;2022-11-20T08:44:58;7.72;;;3.83;;
24557;SDS011;12726;49.148;8.582;2022-11-20T08:47:44;5.85;;;4.05;;
24557;SDS011;12726;49.148;8.582;2022-11-20T08:50:30;4.78;;;3.67;;
24557;SDS011;12726;49.148;8.582;2022-11-20T08:53:15;6.43;;;3.83;;
24557;SDS011;12726;49.148;8.582;2022-11-20T08:56:01;7.88;;;3.67;;
24557;SDS011;12726;49.148;8.582;2022-11-20T08:58:46;5.97;;;3.83;;
24557;SDS011;12726;49.148;8.582;2022-11-20T09:01:31;4.93;;;3.20;;
24557;SDS011;12726;49.148;8.582;2022-11-20T09:04:18;8.63;;;4.07;;
24557;SDS011;12726;49.148;8.582;2022-11-20T09:07:03;5.18;;;3.92;;
24557;SDS011;12726;49.148;8.582;2022-11-20T09:09:49;6.03;;;4.25;;
24557;SDS011;12726;49.148;8.582;2022-11-20T09:12:34;5.80;;;4.05;;
24557;SDS011;12726;49.148;8.582;2022-11-20T09:15:19;5.53;;;4.28;;
24557;SDS011;12726;49.148;8.582;2022-11-20T09:18:04;5.88;;;3.90;;
24557;SDS011;12726;49.148;8.582;2022-11-20T09:20:51;5.50;;;3.65;;
24557;SDS011;12726;49.148;8.582;2022-11-20T09:23:38;5.95;;;4.03;;
24557;SDS011;12726;49.148;8.582;2022-11-20T09:26:23;6.30;;;4.18;;
24557;SDS011;12726;49.148;8.582;2022-11-20T09:29:09;5.28;;;3.70;;
24557;SDS011;12726;49.148;8.582;2022-11-20T09:31:54;7.85;;;4.22;;
24557;SDS011;12726;49.148;8.582;2022-11-20T09:34:40;6.32;;;3.60;;
24557;SDS011;12726;49.148;8.582;2022-11-20T09:37:26;5.25;;;3.65;;
24557;SDS011;12726;49.148;8.582;2022-11-20T09:40:17;6.75;;;3.85;;
24557;SDS011;12726;49.148;8.582;2022-11-20T09:43:06;7.75;;;5.85;;
24557;SDS011;12726;49.148;8.582;2022-11-20T09:46:02;5.32;;;3.00;;
24557;SDS011;12726;49.148;8.582;2022-11-20T09:48:55;3.78;;;2.25;;
24557;SDS011;12726;49.148;8.582;2022-11-20T09:51:53;4.43;;;2.50;;
24557;SDS011;12726;49.148;8.582;2022-11-20T09:54:44;4.80;;;2.90;;
24557;SDS011;12726;49.148;8.582;2022-11-20T09:57:30;4.90;;;2.65;;
24557;SDS011;12726;49.148;8.582;2022-11-20T10:00:21;4.82;;;3.25;;
24557;SDS011;12726;49.148;8.582;2022-11-20T10:03:11;4.95;;;3.38;;
24557;SDS011;12726;49.148;8.582;2022-11-20T10:06:00;5.10;;;3.50;;
24557;SDS011;12726;49.148;8.582;2022-11-20T10:08:51;4.63;;;3.55;;
24557;SDS011;12726;49.148;8.582;2022-11-20T10:11:48;5.13;;;3.40;;
24557;SDS011;12726;49.148;8.582;2022-11-20T10:21:05;5.65;;;3.38;;
24557;SDS011;12726;49.148;8.582;2022-11-20T10:24:15;5.70;;;3.60;;
24557;SDS011;12726;49.148;8.582;2022-11-20T10:27:20;5.75;;;3.40;;
24557;SDS011;12726;49.148;8.582;2022-11-20T10:30:23;5.75;;;3.85;;
24557;SDS011;12726;49.148;8.582;2022-11-20T10:33:11;5.13;;;3.53;;
24557;SDS011;12726;49.148;8.582;2022-11-20T10:38:53;4.70;;;3.10;;
24557;SDS011;12726;49.148;8.582;2022-11-20T10:41:43;6.78;;;3.13;;
24557;SDS011;12726;49.148;8.582;2022-11-20T10:44:35;5.38;;;2.90;;
24557;SDS011;12726;49.148;8.582;2022-11-20T10:47:39;30.10;;;16.10;;
24557;SDS011;12726;49.148;8.582;2022-11-20T10:50:25;4.13;;;3.47;;
24557;SDS011;12726;49.148;8.582;2022-11-20T10:53:16;5.63;;;2.88;;
24557;SDS011;12726;49.148;8.582;2022-11-20T10:56:14;5.60;;;3.38;;
24557;SDS011;12726;49.148;8.582;2022-11-20T11:02:19;5.43;;;3.70;;
24557;SDS011;12726;49.148;8.582;2022-11-20T11:05:10;6.85;;;3.70;;
24557;SDS011;12726;49.148;8.582;2022-11-20T11:08:03;3.85;;;2.85;;
24557;SDS011;12726;49.148;8.582;2022-11-20T11:10:55;5.05;;;3.58;;
24557;SDS011;12726;49.148;8.582;2022-11-20T11:13:43;4.53;;;3.00;;
24557;SDS011;12726;49.148;8.582;2022-11-20T11:16:29;7.50;;;3.00;;
24557;SDS011;12726;49.148;8.582;2022-11-20T11:19:15;4.40;;;2.60;;
24557;SDS011;12726;49.148;8.582;2022-11-20T11:22:01;6.28;;;3.10;;
24557;SDS011;12726;49.148;8.582;2022-11-20T11:25:01;5.40;;;2.92;;
24557;SDS011;12726;49.148;8.582;2022-11-20T11:27:46;5.50;;;2.92;;
24557;SDS011;12726;49.148;8.582;2022-11-20T11:30:40;6.28;;;2.67;;
24557;SDS011;12726;49.148;8.582;2022-11-20T11:33:27;10.52;;;3.08;;
24557;SDS011;12726;49.148;8.582;2022-11-20T11:36:17;6.70;;;2.80;;
24557;SDS011;12726;49.148;8.582;2022-11-20T11:39:10;7.30;;;3.72;;
24557;SDS011;12726;49.148;8.582;2022-11-20T11:41:59;10.75;;;4.68;;
24557;SDS011;12726;49.148;8.582;2022-11-20T11:44:46;5.97;;;2.80;;
24557;SDS011;12726;49.148;8.582;2022-11-20T11:47:50;11.73;;;7.10;;
24557;SDS011;12726;49.148;8.582;2022-11-20T11:50:37;5.13;;;2.60;;
24557;SDS011;12726;49.148;8.582;2022-11-20T11:53:33;4.40;;;2.22;;
24557;SDS011;12726;49.148;8.582;2022-11-20T11:56:26;3.97;;;1.80;;
24557;SDS011;12726;49.148;8.582;2022-11-20T11:59:12;4.20;;;2.10;;
24557;SDS011;12726;49.148;8.582;2022-11-20T12:02:11;6.28;;;2.35;;
24557;SDS011;12726;49.148;8.582;2022-11-20T12:05:13;7.60;;;2.25;;
24557;SDS011;12726;49.148;8.582;2022-11-20T12:08:04;5.07;;;2.35;;
24557;SDS011;12726;49.148;8.582;2022-11-20T12:10:53;5.25;;;2.67;;
24557;SDS011;12726;49.148;8.582;2022-11-20T12:13:47;6.40;;;2.10;;
24557;SDS011;12726;49.148;8.582;2022-11-20T12:16:37;3.42;;;1.55;;
24557;SDS011;12726;49.148;8.582;2022-11-20T12:19:24;3.45;;;1.98;;
24557;SDS011;12726;49.148;8.582;2022-11-20T12:22:12;3.63;;;1.10;;
24557;SDS011;12726;49.148;8.582;2022-11-20T12:25:09;2.83;;;1.10;;
24557;SDS011;12726;49.148;8.582;2022-11-20T12:28:10;3.97;;;1.00;;
24557;SDS011;12726;49.148;8.582;2022-11-20T12:31:21;2.83;;;1.20;;
24557;SDS011;12726;49.148;8.582;2022-11-20T12:34:24;3.50;;;1.08;;
24557;SDS011;12726;49.148;8.582;2022-11-20T12:37:24;3.70;;;1.63;;
24557;SDS011;12726;49.148;8.582;2022-11-20T12:40:23;3.15;;;1.17;;
24557;SDS011;12726;49.148;8.582;2022-11-20T12:43:20;4.20;;;1.10;;
24557;SDS011;12726;49.148;8.582;2022-11-20T12:46:27;3.03;;;1.02;;
24557;SDS011;12726;49.148;8.582;2022-11-20T12:49:23;2.63;;;1.08;;
24557;SDS011;12726;49.148;8.582;2022-11-20T12:52:21;5.53;;;1.50;;
24557;SDS011;12726;49.148;8.582;2022-11-20T12:55:25;5.22;;;1.20;;
24557;SDS011;12726;49.148;8.582;2022-11-20T12:58:22;2.80;;;1.08;;
24557;SDS011;12726;49.148;8.582;2022-11-20T13:01:19;2.97;;;1.10;;
24557;SDS011;12726;49.148;8.582;2022-11-20T13:04:34;3.30;;;1.20;;
24557;SDS011;12726;49.148;8.582;2022-11-20T13:07:44;4.28;;;1.20;;
24557;SDS011;12726;49.148;8.582;2022-11-20T13:10:31;4.50;;;1.25;;
24557;SDS011;12726;49.148;8.582;2022-11-20T13:13:23;2.40;;;1.13;;
24557;SDS011;12726;49.148;8.582;2022-11-20T13:16:16;5.38;;;1.00;;
24557;SDS011;12726;49.148;8.582;2022-11-20T13:21:56;3.25;;;0.95;;
24557;SDS011;12726;49.148;8.582;2022-11-20T13:24:49;4.43;;;1.02;;
24557;SDS011;12726;49.148;8.582;2022-11-20T13:27:36;4.13;;;1.48;;
24557;SDS011;12726;49.148;8.582;2022-11-20T13:30:34;8.63;;;1.10;;
24557;SDS011;12726;49.148;8.582;2022-11-20T13:33:22;5.63;;;2.15;;
24557;SDS011;12726;49.148;8.582;2022-11-20T13:36:19;2.73;;;0.90;;
24557;SDS011;12726;49.148;8.582;2022-11-20T13:39:08;3.20;;;1.00;;
24557;SDS011;12726;49.148;8.582;2022-11-20T13:41:54;4.80;;;1.20;;
24557;SDS011;12726;49.148;8.582;2022-11-20T13:44:42;2.55;;;0.98;;
24557;SDS011;12726;49.148;8.582;2022-11-20T13:47:31;6.28;;;0.73;;
24557;SDS011;12726;49.148;8.582;2022-11-20T13:50:16;3.15;;;1.05;;
24557;SDS011;12726;49.148;8.582;2022-11-20T13:53:04;2.80;;;0.90;;
24557;SDS011;12726;49.148;8.582;2022-11-20T13:55:59;2.25;;;1.25;;
24557;SDS011;12726;49.148;8.582;2022-11-20T13:58:51;3.08;;;0.82;;
24557;SDS011;12726;49.148;8.582;2022-11-20T14:01:44;2.28;;;0.77;;
24557;SDS011;12726;49.148;8.582;2022-11-20T14:04:32;2.45;;;0.80;;
24557;SDS011;12726;49.148;8.582;2022-11-20T14:07:20;2.25;;;0.88;;
24557;SDS011;12726;49.148;8.582;2022-11-20T14:10:20;1.73;;;0.90;;
24557;SDS011;12726;49.148;8.582;2022-11-20T14:13:10;1.27;;;0.77;;
24557;SDS011;12726;49.148;8.582;2022-11-20T14:15:56;2.67;;;0.95;;
24557;SDS011;12726;49.148;8.582;2022-11-20T14:18:42;7.57;;;1.10;;
24557;SDS011;12726;49.148;8.582;2022-11-20T14:21:29;3.58;;;1.08;;
24557;SDS011;12726;49.148;8.582;2022-11-20T14:24:18;2.63;;;0.80;;
24557;SDS011;12726;49.148;8.582;2022-11-20T14:27:04;2.50;;;0.82;;
24557;SDS011;12726;49.148;8.582;2022-11-20T14:29:49;3.10;;;1.00;;
24557;SDS011;12726;49.148;8.582;2022-11-20T14:32:35;4.30;;;0.95;;
24557;SDS011;12726;49.148;8.582;2022-11-20T14:35:23;4.75;;;1.02;;
24557;SDS011;12726;49.148;8.582;2022-11-20T14:38:11;1.50;;;0.73;;
24557;SDS011;12726;49.148;8.582;2022-11-20T14:41:05;4.00;;;1.30;;
24557;SDS011;12726;49.148;8.582;2022-11-20T14:43:51;1.90;;;0.90;;
24557;SDS011;12726;49.148;8.582;2022-11-20T14:46:40;5.20;;;1.20;;
24557;SDS011;12726;49.148;8.582;2022-11-20T14:49:26;3.25;;;1.50;;
24557;SDS011;12726;49.148;8.582;2022-11-20T14:52:16;2.75;;;0.90;;
24557;SDS011;12726;49.148;8.582;2022-11-20T14:55:04;3.25;;;1.77;;
24557;SDS011;12726;49.148;8.582;2022-11-20T14:57:54;3.53;;;0.90;;
24557;SDS011;12726;49.148;8.582;2022-11-20T15:00:40;3.47;;;0.77;;
24557;SDS011;12726;49.148;8.582;2022-11-20T15:03:31;4.72;;;1.00;;
24557;SDS011;12726;49.148;8.582;2022-11-20T15:06:25;3.28;;;0.90;;
24557;SDS011;12726;49.148;8.582;2022-11-20T15:09:12;0.90;;;0.52;;
24557;SDS011;12726;49.148;8.582;2022-11-20T15:12:01;8.10;;;1.17;;
24557;SDS011;12726;49.148;8.582;2022-11-20T15:14:48;1.73;;;0.70;;
24557;SDS011;12726;49.148;8.582;2022-11-20T15:17:33;4.43;;;1.00;;
24557;SDS011;12726;49.148;8.582;2022-11-20T15:20:24;4.28;;;0.90;;
24557;SDS011;12726;49.148;8.582;2022-11-20T15:23:12;3.20;;;0.90;;
24557;SDS011;12726;49.148;8.582;2022-11-20T15:25:59;2.50;;;1.00;;
24557;SDS011;12726;49.148;8.582;2022-11-20T15:28:46;1.70;;;0.90;;
24557;SDS011;12726;49.148;8.582;2022-11-20T15:31:33;3.08;;;0.80;;
24557;SDS011;12726;49.148;8.582;2022-11-20T15:34:18;1.58;;;0.60;;
24557;SDS011;12726;49.148;8.582;2022-11-20T15:37:04;1.67;;;0.80;;
24557;SDS011;12726;49.148;8.582;2022-11-20T15:39:49;1.50;;;0.70;;
24557;SDS011;12726;49.148;8.582;2022-11-20T15:42:34;2.85;;;0.90;;
24557;SDS011;12726;49.148;8.582;2022-11-20T15:45:21;2.88;;;0.75;;
24557;SDS011;12726;49.148;8.582;2022-11-20T15:48:08;2.97;;;1.02;;
24557;SDS011;12726;49.148;8.582;2022-11-20T15:50:58;2.03;;;0.70;;
24557;SDS011;12726;49.148;8.582;2022-11-20T15:53:47;2.20;;;0.80;;
24557;SDS011;12726;49.148;8.582;2022-11-20T15:56:33;3.83;;;0.98;;
24557;SDS011;12726;49.148;8.582;2022-11-20T15:59:18;2.80;;;1.65;;
24557;SDS011;12726;49.148;8.582;2022-11-20T16:02:07;2.88;;;1.00;;
24557;SDS011;12726;49.148;8.582;2022-11-20T16:04:54;3.30;;;1.30;;
24557;SDS011;12726;49.148;8.582;2022-11-20T16:07:39;2.35;;;0.90;;
24557;SDS011;12726;49.148;8.582;2022-11-20T16:10:24;3.05;;;1.10;;
24557;SDS011;12726;49.148;8.582;2022-11-20T16:13:11;2.78;;;0.80;;
24557;SDS011;12726;49.148;8.582;2022-11-20T16:16:18;1.15;;;0.60;;
24557;SDS011;12726;49.148;8.582;2022-11-20T16:19:09;1.40;;;0.77;;
24557;SDS011;12726;49.148;8.582;2022-11-20T16:21:56;2.72;;;0.70;;
24557;SDS011;12726;49.148;8.582;2022-11-20T16:24:42;3.72;;;0.82;;
24557;SDS011;12726;49.148;8.582;2022-11-20T16:27:27;4.68;;;0.82;;
24557;SDS011;12726;49.148;8.582;2022-11-20T16:30:12;2.75;;;1.02;;
24557;SDS011;12726;49.148;8.582;2022-11-20T16:32:58;2.20;;;0.90;;
24557;SDS011;12726;49.148;8.582;2022-11-20T16:35:45;3.10;;;1.10;;
24557;SDS011;12726;49.148;8.582;2022-11-20T16:38:30;2.20;;;1.02;;
24557;SDS011;12726;49.148;8.582;2022-11-20T16:41:16;3.08;;;0.75;;
24557;SDS011;12726;49.148;8.582;2022-11-20T16:44:02;1.13;;;0.75;;
24557;SDS011;12726;49.148;8.582;2022-11-20T16:46:51;3.47;;;0.80;;
24557;SDS011;12726;49.148;8.582;2022-11-20T16:49:36;3.50;;;0.93;;
24557;SDS011;12726;49.148;8.582;2022-11-20T16:52:23;2.17;;;0.88;;
24557;SDS011;12726;49.148;8.582;2022-11-20T16:55:08;1.70;;;0.93;;
24557;SDS011;12726;49.148;8.582;2022-11-20T16:57:53;2.65;;;0.80;;
24557;SDS011;12726;49.148;8.582;2022-11-20T17:00:39;1.75;;;0.80;;
24557;SDS011;12726;49.148;8.582;2022-11-20T17:03:25;1.00;;;0.70;;